sensor_id;sensor_type;location;lat;lon;timestamp;temperature;humidity
22682;DHT22;11508;50.856;4.380;2023-04-22T00:00:36;10.90;38.80
22682;DHT22;11508;50.856;4.380;2023-04-22T00:03:02;11.00;30.40
22682;DHT22;11508;50.856;4.380;2023-04-22T00:05:28;11.10;15.60
22682;DHT22;11508;50.856;4.380;2023-04-22T00:07:54;11.20;1.90
22682;DHT22;11508;50.856;4.380;2023-04-22T00:10:20;11.00;1.00
22682;DHT22;11508;50.856;4.380;2023-04-22T00:12:46;10.70;11.00
22682;DHT22;11508;50.856;4.380;2023-04-22T00:15:11;10.60;36.30
22682;DHT22;11508;50.856;4.380;2023-04-22T00:17:37;10.50;33.10
22682;DHT22;11508;50.856;4.380;2023-04-22T00:20:03;10.50;35.70
22682;DHT22;11508;50.856;4.380;2023-04-22T00:22:29;10.40;26.80
22682;DHT22;11508;50.856;4.380;2023-04-22T00:24:54;10.40;29.20
22682;DHT22;11508;50.856;4.380;2023-04-22T00:27:20;10.40;35.20
22682;DHT22;11508;50.856;4.380;2023-04-22T00:29:46;10.10;32.90
22682;DHT22;11508;50.856;4.380;2023-04-22T00:32:11;10.10;45.80
22682;DHT22;11508;50.856;4.380;2023-04-22T00:34:37;10.00;51.70
22682;DHT22;11508;50.856;4.380;2023-04-22T00:37:03;10.00;63.70
22682;DHT22;11508;50.856;4.380;2023-04-22T00:39:28;9.90;61.00
22682;DHT22;11508;50.856;4.380;2023-04-22T00:41:54;10.00;65.60
22682;DHT22;11508;50.856;4.380;2023-04-22T00:44:21;10.10;46.50
22682;DHT22;11508;50.856;4.380;2023-04-22T00:46:47;10.30;53.30
22682;DHT22;11508;50.856;4.380;2023-04-22T00:49:14;10.40;45.20
22682;DHT22;11508;50.856;4.380;2023-04-22T00:51:40;10.20;33.40
22682;DHT22;11508;50.856;4.380;2023-04-22T00:54:06;10.10;40.10
22682;DHT22;11508;50.856;4.380;2023-04-22T00:56:32;10.10;52.00
22682;DHT22;11508;50.856;4.380;2023-04-22T00:59:00;10.20;54.30
22682;DHT22;11508;50.856;4.380;2023-04-22T01:01:26;10.30;51.90
22682;DHT22;11508;50.856;4.380;2023-04-22T01:03:52;10.40;42.40
22682;DHT22;11508;50.856;4.380;2023-04-22T01:06:18;10.50;33.90
22682;DHT22;11508;50.856;4.380;2023-04-22T01:08:45;10.60;23.90
22682;DHT22;11508;50.856;4.380;2023-04-22T01:11:13;10.50;20.30
22682;DHT22;11508;50.856;4.380;2023-04-22T01:13:39;10.60;21.20
22682;DHT22;11508;50.856;4.380;2023-04-22T01:16:06;10.60;12.20
22682;DHT22;11508;50.856;4.380;2023-04-22T01:18:34;10.60;10.60
22682;DHT22;11508;50.856;4.380;2023-04-22T01:21:01;10.60;7.30
22682;DHT22;11508;50.856;4.380;2023-04-22T01:23:27;10.70;6.10
22682;DHT22;11508;50.856;4.380;2023-04-22T01:25:53;10.70;2.40
22682;DHT22;11508;50.856;4.380;2023-04-22T01:28:19;10.70;1.00
22682;DHT22;11508;50.856;4.380;2023-04-22T01:30:45;10.80;1.00
22682;DHT22;11508;50.856;4.380;2023-04-22T01:33:14;10.10;45.20
22682;DHT22;11508;50.856;4.380;2023-04-22T01:35:40;9.90;92.30
22682;DHT22;11508;50.856;4.380;2023-04-22T01:38:08;10.00;92.70
22682;DHT22;11508;50.856;4.380;2023-04-22T01:40:34;9.90;95.30
22682;DHT22;11508;50.856;4.380;2023-04-22T01:43:00;9.90;99.90
22682;DHT22;11508;50.856;4.380;2023-04-22T01:45:26;9.90;97.10
22682;DHT22;11508;50.856;4.380;2023-04-22T01:47:53;10.00;97.60
22682;DHT22;11508;50.856;4.380;2023-04-22T01:50:19;9.90;99.80
22682;DHT22;11508;50.856;4.380;2023-04-22T01:52:45;9.90;99.90
22682;DHT22;11508;50.856;4.380;2023-04-22T01:55:11;9.90;99.90
22682;DHT22;11508;50.856;4.380;2023-04-22T01:57:37;9.70;99.90
22682;DHT22;11508;50.856;4.380;2023-04-22T02:00:04;9.80;99.90
22682;DHT22;11508;50.856;4.380;2023-04-22T02:02:30;10.00;99.90
22682;DHT22;11508;50.856;4.380;2023-04-22T02:04:56;10.10;99.90
22682;DHT22;11508;50.856;4.380;2023-04-22T02:07:21;10.20;95.90
22682;DHT22;11508;50.856;4.380;2023-04-22T02:09:48;9.80;99.90
22682;DHT22;11508;50.856;4.380;2023-04-22T02:12:14;9.90;99.90
22682;DHT22;11508;50.856;4.380;2023-04-22T02:14:39;10.10;99.90
22682;DHT22;11508;50.856;4.380;2023-04-22T02:17:05;10.20;99.90
22682;DHT22;11508;50.856;4.380;2023-04-22T02:19:31;10.30;99.90
22682;DHT22;11508;50.856;4.380;2023-04-22T02:21:57;10.30;96.80
22682;DHT22;11508;50.856;4.380;2023-04-22T02:24:22;10.40;95.80
22682;DHT22;11508;50.856;4.380;2023-04-22T02:26:48;10.40;94.30
22682;DHT22;11508;50.856;4.380;2023-04-22T02:29:14;10.50;92.80
22682;DHT22;11508;50.856;4.380;2023-04-22T02:31:40;10.40;95.70
22682;DHT22;11508;50.856;4.380;2023-04-22T02:34:06;10.40;93.90
22682;DHT22;11508;50.856;4.380;2023-04-22T02:36:32;10.40;93.30
22682;DHT22;11508;50.856;4.380;2023-04-22T02:39:00;10.50;90.50
22682;DHT22;11508;50.856;4.380;2023-04-22T02:41:26;10.50;89.90
22682;DHT22;11508;50.856;4.380;2023-04-22T02:43:53;10.60;88.30
22682;DHT22;11508;50.856;4.380;2023-04-22T02:46:19;10.60;84.10
22682;DHT22;11508;50.856;4.380;2023-04-22T02:48:45;10.60;82.90
22682;DHT22;11508;50.856;4.380;2023-04-22T02:51:11;10.60;80.30
22682;DHT22;11508;50.856;4.380;2023-04-22T02:53:37;10.70;75.80
22682;DHT22;11508;50.856;4.380;2023-04-22T02:56:03;10.60;65.60
22682;DHT22;11508;50.856;4.380;2023-04-22T02:58:28;10.50;80.70
22682;DHT22;11508;50.856;4.380;2023-04-22T03:00:54;10.20;83.80
22682;DHT22;11508;50.856;4.380;2023-04-22T03:03:21;9.90;99.90
22682;DHT22;11508;50.856;4.380;2023-04-22T03:05:47;9.90;99.90
22682;DHT22;11508;50.856;4.380;2023-04-22T03:08:12;10.00;99.90
22682;DHT22;11508;50.856;4.380;2023-04-22T03:10:38;10.00;99.90
22682;DHT22;11508;50.856;4.380;2023-04-22T03:13:03;10.10;99.90
22682;DHT22;11508;50.856;4.380;2023-04-22T03:15:29;10.20;99.90
22682;DHT22;11508;50.856;4.380;2023-04-22T03:17:55;10.40;99.50
22682;DHT22;11508;50.856;4.380;2023-04-22T03:20:21;10.20;95.30
22682;DHT22;11508;50.856;4.380;2023-04-22T03:22:46;10.50;94.90
22682;DHT22;11508;50.856;4.380;2023-04-22T03:25:12;10.80;81.70
22682;DHT22;11508;50.856;4.380;2023-04-22T03:27:38;11.00;41.70
22682;DHT22;11508;50.856;4.380;2023-04-22T03:30:04;10.90;26.70
22682;DHT22;11508;50.856;4.380;2023-04-22T03:32:30;10.90;28.60
22682;DHT22;11508;50.856;4.380;2023-04-22T03:34:56;10.80;29.70
22682;DHT22;11508;50.856;4.380;2023-04-22T03:37:21;10.70;31.40
22682;DHT22;11508;50.856;4.380;2023-04-22T03:39:47;10.70;40.00
22682;DHT22;11508;50.856;4.380;2023-04-22T03:42:13;10.80;34.80
22682;DHT22;11508;50.856;4.380;2023-04-22T03:44:39;10.90;25.10
22682;DHT22;11508;50.856;4.380;2023-04-22T03:47:05;10.70;12.50
22682;DHT22;11508;50.856;4.380;2023-04-22T03:49:31;10.60;20.30
22682;DHT22;11508;50.856;4.380;2023-04-22T03:51:56;10.50;22.10
22682;DHT22;11508;50.856;4.380;2023-04-22T03:54:23;10.50;32.50
22682;DHT22;11508;50.856;4.380;2023-04-22T03:56:49;10.50;29.20
22682;DHT22;11508;50.856;4.380;2023-04-22T03:59:15;10.50;27.80
22682;DHT22;11508;50.856;4.380;2023-04-22T04:01:41;10.50;23.30
22682;DHT22;11508;50.856;4.380;2023-04-22T04:04:07;10.50;23.10
22682;DHT22;11508;50.856;4.380;2023-04-22T04:06:32;10.50;22.50
22682;DHT22;11508;50.856;4.380;2023-04-22T04:08:58;10.40;23.40
22682;DHT22;11508;50.856;4.380;2023-04-22T04:11:25;10.40;27.70
22682;DHT22;11508;50.856;4.380;2023-04-22T04:13:51;10.20;40.10
22682;DHT22;11508;50.856;4.380;2023-04-22T04:16:17;10.20;37.40
22682;DHT22;11508;50.856;4.380;2023-04-22T04:18:43;10.10;29.30
22682;DHT22;11508;50.856;4.380;2023-04-22T04:21:08;9.90;42.80
22682;DHT22;11508;50.856;4.380;2023-04-22T04:23:34;9.80;57.40
22682;DHT22;11508;50.856;4.380;2023-04-22T04:26:00;9.70;52.70
22682;DHT22;11508;50.856;4.380;2023-04-22T04:28:27;9.70;59.00
22682;DHT22;11508;50.856;4.380;2023-04-22T04:30:57;9.70;57.90
22682;DHT22;11508;50.856;4.380;2023-04-22T04:33:23;9.70;60.90
22682;DHT22;11508;50.856;4.380;2023-04-22T04:35:50;9.60;70.60
22682;DHT22;11508;50.856;4.380;2023-04-22T04:38:15;9.70;58.00
22682;DHT22;11508;50.856;4.380;2023-04-22T04:40:41;9.70;61.50
22682;DHT22;11508;50.856;4.380;2023-04-22T04:43:08;9.90;55.20
22682;DHT22;11508;50.856;4.380;2023-04-22T04:45:34;10.00;38.60
22682;DHT22;11508;50.856;4.380;2023-04-22T04:48:05;10.10;41.30
22682;DHT22;11508;50.856;4.380;2023-04-22T04:50:33;10.20;28.20
22682;DHT22;11508;50.856;4.380;2023-04-22T04:53:00;10.30;17.00
22682;DHT22;11508;50.856;4.380;2023-04-22T04:55:26;10.40;12.10
22682;DHT22;11508;50.856;4.380;2023-04-22T04:57:52;10.40;1.20
22682;DHT22;11508;50.856;4.380;2023-04-22T05:00:18;10.50;1.00
22682;DHT22;11508;50.856;4.380;2023-04-22T05:02:43;10.60;1.00
22682;DHT22;11508;50.856;4.380;2023-04-22T05:05:09;10.50;1.00
22682;DHT22;11508;50.856;4.380;2023-04-22T05:07:35;10.50;1.00
22682;DHT22;11508;50.856;4.380;2023-04-22T05:10:02;10.60;1.00
22682;DHT22;11508;50.856;4.380;2023-04-22T05:12:27;10.60;1.00
22682;DHT22;11508;50.856;4.380;2023-04-22T05:14:53;10.60;1.00
22682;DHT22;11508;50.856;4.380;2023-04-22T05:17:19;10.70;1.00
22682;DHT22;11508;50.856;4.380;2023-04-22T05:19:45;10.80;1.00
22682;DHT22;11508;50.856;4.380;2023-04-22T05:22:11;10.80;1.00
22682;DHT22;11508;50.856;4.380;2023-04-22T05:24:36;10.70;1.00
22682;DHT22;11508;50.856;4.380;2023-04-22T05:27:02;10.60;1.00
22682;DHT22;11508;50.856;4.380;2023-04-22T05:29:28;10.60;1.00
22682;DHT22;11508;50.856;4.380;2023-04-22T05:31:54;10.80;1.00
22682;DHT22;11508;50.856;4.380;2023-04-22T05:34:19;10.90;1.00
22682;DHT22;11508;50.856;4.380;2023-04-22T05:36:45;11.10;1.00
22682;DHT22;11508;50.856;4.380;2023-04-22T05:39:11;11.30;1.00
22682;DHT22;11508;50.856;4.380;2023-04-22T05:41:37;11.00;1.00
22682;DHT22;11508;50.856;4.380;2023-04-22T05:44:03;11.10;1.00
22682;DHT22;11508;50.856;4.380;2023-04-22T05:46:29;10.90;1.00
22682;DHT22;11508;50.856;4.380;2023-04-22T05:48:55;10.80;1.00
22682;DHT22;11508;50.856;4.380;2023-04-22T05:51:21;11.00;1.00
22682;DHT22;11508;50.856;4.380;2023-04-22T05:53:48;11.30;1.00
22682;DHT22;11508;50.856;4.380;2023-04-22T05:56:14;11.50;1.00
22682;DHT22;11508;50.856;4.380;2023-04-22T05:58:41;11.70;1.00
22682;DHT22;11508;50.856;4.380;2023-04-22T06:01:06;11.80;1.00
22682;DHT22;11508;50.856;4.380;2023-04-22T06:03:32;12.10;1.00
22682;DHT22;11508;50.856;4.380;2023-04-22T06:05:58;12.20;1.00
22682;DHT22;11508;50.856;4.380;2023-04-22T06:08:24;12.50;1.00
22682;DHT22;11508;50.856;4.380;2023-04-22T06:10:50;12.80;1.00
22682;DHT22;11508;50.856;4.380;2023-04-22T06:13:16;13.20;99.90
22682;DHT22;11508;50.856;4.380;2023-04-22T06:15:41;13.10;99.90
22682;DHT22;11508;50.856;4.380;2023-04-22T06:18:07;12.90;99.90
22682;DHT22;11508;50.856;4.380;2023-04-22T06:20:33;12.70;99.90
22682;DHT22;11508;50.856;4.380;2023-04-22T06:23:00;12.50;99.90
22682;DHT22;11508;50.856;4.380;2023-04-22T06:25:26;12.90;99.90
22682;DHT22;11508;50.856;4.380;2023-04-22T06:27:51;13.00;99.90
22682;DHT22;11508;50.856;4.380;2023-04-22T06:30:17;13.30;99.90
22682;DHT22;11508;50.856;4.380;2023-04-22T06:32:43;13.60;99.90
22682;DHT22;11508;50.856;4.380;2023-04-22T06:35:09;13.30;6.20
22682;DHT22;11508;50.856;4.380;2023-04-22T06:37:35;13.10;99.90
22682;DHT22;11508;50.856;4.380;2023-04-22T06:40:02;13.20;99.90
22682;DHT22;11508;50.856;4.380;2023-04-22T06:42:28;13.10;99.90
22682;DHT22;11508;50.856;4.380;2023-04-22T06:44:53;13.00;96.70
22682;DHT22;11508;50.856;4.380;2023-04-22T06:47:19;13.20;71.50
22682;DHT22;11508;50.856;4.380;2023-04-22T06:49:45;13.10;3.00
22682;DHT22;11508;50.856;4.380;2023-04-22T06:52:10;13.20;1.00
22682;DHT22;11508;50.856;4.380;2023-04-22T06:54:36;13.10;99.90
22682;DHT22;11508;50.856;4.380;2023-04-22T06:57:04;12.90;99.90
22682;DHT22;11508;50.856;4.380;2023-04-22T06:59:30;12.90;99.90
22682;DHT22;11508;50.856;4.380;2023-04-22T07:01:55;12.70;1.00
22682;DHT22;11508;50.856;4.380;2023-04-22T07:04:21;12.70;1.00
22682;DHT22;11508;50.856;4.380;2023-04-22T07:06:47;12.60;99.90
22682;DHT22;11508;50.856;4.380;2023-04-22T07:09:12;12.70;99.90
22682;DHT22;11508;50.856;4.380;2023-04-22T07:11:38;12.80;99.90
22682;DHT22;11508;50.856;4.380;2023-04-22T07:14:04;12.90;99.90
22682;DHT22;11508;50.856;4.380;2023-04-22T07:16:30;13.20;99.90
22682;DHT22;11508;50.856;4.380;2023-04-22T07:18:55;13.20;1.00
22682;DHT22;11508;50.856;4.380;2023-04-22T07:21:21;13.30;99.90
22682;DHT22;11508;50.856;4.380;2023-04-22T07:23:47;13.70;1.00
22682;DHT22;11508;50.856;4.380;2023-04-22T07:26:13;13.70;99.90
22682;DHT22;11508;50.856;4.380;2023-04-22T07:28:38;13.30;30.00
22682;DHT22;11508;50.856;4.380;2023-04-22T07:31:04;13.00;1.00
22682;DHT22;11508;50.856;4.380;2023-04-22T07:33:30;12.80;1.00
22682;DHT22;11508;50.856;4.380;2023-04-22T07:35:56;12.60;99.90
22682;DHT22;11508;50.856;4.380;2023-04-22T07:38:21;13.00;99.90
22682;DHT22;11508;50.856;4.380;2023-04-22T07:40:47;13.00;59.10
22682;DHT22;11508;50.856;4.380;2023-04-22T07:43:12;13.00;1.00
22682;DHT22;11508;50.856;4.380;2023-04-22T07:45:38;12.60;99.90
22682;DHT22;11508;50.856;4.380;2023-04-22T07:48:04;12.50;99.90
22682;DHT22;11508;50.856;4.380;2023-04-22T07:50:30;12.50;99.90
22682;DHT22;11508;50.856;4.380;2023-04-22T07:52:56;12.40;1.00
22682;DHT22;11508;50.856;4.380;2023-04-22T07:55:22;12.90;99.90
22682;DHT22;11508;50.856;4.380;2023-04-22T07:57:48;13.20;99.90
22682;DHT22;11508;50.856;4.380;2023-04-22T08:00:14;13.40;99.90
22682;DHT22;11508;50.856;4.380;2023-04-22T08:02:40;13.60;76.80
22682;DHT22;11508;50.856;4.380;2023-04-22T08:05:06;13.90;24.30
22682;DHT22;11508;50.856;4.380;2023-04-22T08:07:32;13.90;1.00
22682;DHT22;11508;50.856;4.380;2023-04-22T08:09:58;13.80;76.60
22682;DHT22;11508;50.856;4.380;2023-04-22T08:12:24;13.60;27.20
22682;DHT22;11508;50.856;4.380;2023-04-22T08:14:49;14.20;1.00
22682;DHT22;11508;50.856;4.380;2023-04-22T08:17:15;14.30;99.90
22682;DHT22;11508;50.856;4.380;2023-04-22T08:19:41;14.30;99.90
22682;DHT22;11508;50.856;4.380;2023-04-22T08:22:06;14.40;99.90
22682;DHT22;11508;50.856;4.380;2023-04-22T08:24:32;15.10;48.30
22682;DHT22;11508;50.856;4.380;2023-04-22T08:26:58;15.90;99.90
22682;DHT22;11508;50.856;4.380;2023-04-22T08:29:24;16.10;1.00
22682;DHT22;11508;50.856;4.380;2023-04-22T08:31:50;16.70;99.90
22682;DHT22;11508;50.856;4.380;2023-04-22T08:34:15;18.10;27.40
22682;DHT22;11508;50.856;4.380;2023-04-22T08:36:41;16.90;99.90
22682;DHT22;11508;50.856;4.380;2023-04-22T08:39:07;16.20;99.90
22682;DHT22;11508;50.856;4.380;2023-04-22T08:41:33;16.30;99.90
22682;DHT22;11508;50.856;4.380;2023-04-22T08:44:00;16.90;99.90
22682;DHT22;11508;50.856;4.380;2023-04-22T08:46:26;17.80;99.90
22682;DHT22;11508;50.856;4.380;2023-04-22T08:48:53;17.80;99.90
22682;DHT22;11508;50.856;4.380;2023-04-22T08:51:19;17.60;99.90
22682;DHT22;11508;50.856;4.380;2023-04-22T08:53:45;17.10;99.90
22682;DHT22;11508;50.856;4.380;2023-04-22T08:56:14;17.40;99.90
22682;DHT22;11508;50.856;4.380;2023-04-22T08:58:40;17.10;99.90
22682;DHT22;11508;50.856;4.380;2023-04-22T09:01:07;18.00;99.90
22682;DHT22;11508;50.856;4.380;2023-04-22T09:03:38;18.30;1.00
22682;DHT22;11508;50.856;4.380;2023-04-22T09:06:05;18.40;1.00
22682;DHT22;11508;50.856;4.380;2023-04-22T09:08:34;17.60;1.00
22682;DHT22;11508;50.856;4.380;2023-04-22T09:11:00;17.30;17.60
22682;DHT22;11508;50.856;4.380;2023-04-22T09:13:27;17.40;26.10
22682;DHT22;11508;50.856;4.380;2023-04-22T09:15:53;17.50;48.60
22682;DHT22;11508;50.856;4.380;2023-04-22T09:18:19;17.70;1.00
22682;DHT22;11508;50.856;4.380;2023-04-22T09:20:46;17.70;1.00
22682;DHT22;11508;50.856;4.380;2023-04-22T09:23:13;17.70;1.00
22682;DHT22;11508;50.856;4.380;2023-04-22T09:25:39;16.70;36.30
22682;DHT22;11508;50.856;4.380;2023-04-22T09:28:10;15.70;99.90
22682;DHT22;11508;50.856;4.380;2023-04-22T09:30:36;15.60;1.00
22682;DHT22;11508;50.856;4.380;2023-04-22T09:33:04;15.90;99.90
22682;DHT22;11508;50.856;4.380;2023-04-22T09:35:38;15.90;86.20
22682;DHT22;11508;50.856;4.380;2023-04-22T09:38:06;15.80;99.90
22682;DHT22;11508;50.856;4.380;2023-04-22T09:40:33;15.60;99.90
22682;DHT22;11508;50.856;4.380;2023-04-22T09:43:01;15.10;1.00
22682;DHT22;11508;50.856;4.380;2023-04-22T09:45:39;14.70;99.90
22682;DHT22;11508;50.856;4.380;2023-04-22T09:48:08;14.50;1.00
22682;DHT22;11508;50.856;4.380;2023-04-22T09:50:35;14.30;1.00
22682;DHT22;11508;50.856;4.380;2023-04-22T09:53:07;13.90;1.00
22682;DHT22;11508;50.856;4.380;2023-04-22T09:55:35;13.90;1.00
22682;DHT22;11508;50.856;4.380;2023-04-22T09:58:10;13.80;6.70
22682;DHT22;11508;50.856;4.380;2023-04-22T10:00:41;13.60;25.80
22682;DHT22;11508;50.856;4.380;2023-04-22T10:03:06;13.70;33.80
22682;DHT22;11508;50.856;4.380;2023-04-22T10:05:33;13.50;36.40
22682;DHT22;11508;50.856;4.380;2023-04-22T10:08:03;13.40;51.40
22682;DHT22;11508;50.856;4.380;2023-04-22T10:10:30;13.20;72.20
22682;DHT22;11508;50.856;4.380;2023-04-22T10:12:56;13.20;86.70
22682;DHT22;11508;50.856;4.380;2023-04-22T10:15:22;13.10;96.10
22682;DHT22;11508;50.856;4.380;2023-04-22T10:17:51;13.00;94.80
22682;DHT22;11508;50.856;4.380;2023-04-22T10:20:19;12.90;99.90
22682;DHT22;11508;50.856;4.380;2023-04-22T10:22:47;12.90;99.90
22682;DHT22;11508;50.856;4.380;2023-04-22T10:25:23;13.00;99.90
22682;DHT22;11508;50.856;4.380;2023-04-22T10:28:04;12.90;99.90
22682;DHT22;11508;50.856;4.380;2023-04-22T10:30:32;12.90;99.90
22682;DHT22;11508;50.856;4.380;2023-04-22T10:36:05;12.90;99.90
22682;DHT22;11508;50.856;4.380;2023-04-22T10:38:36;12.80;99.90
22682;DHT22;11508;50.856;4.380;2023-04-22T10:41:02;12.70;99.90
22682;DHT22;11508;50.856;4.380;2023-04-22T10:43:48;12.90;99.90
22682;DHT22;11508;50.856;4.380;2023-04-22T10:49:05;13.60;99.90
22682;DHT22;11508;50.856;4.380;2023-04-22T10:51:42;13.40;99.90
22682;DHT22;11508;50.856;4.380;2023-04-22T10:57:10;13.30;99.90
22682;DHT22;11508;50.856;4.380;2023-04-22T10:59:52;13.10;99.90
22682;DHT22;11508;50.856;4.380;2023-04-22T11:02:19;13.00;99.90
22682;DHT22;11508;50.856;4.380;2023-04-22T11:04:45;12.80;99.90
22682;DHT22;11508;50.856;4.380;2023-04-22T11:09:45;13.20;99.90
22682;DHT22;11508;50.856;4.380;2023-04-22T11:15:03;13.40;99.90
22682;DHT22;11508;50.856;4.380;2023-04-22T11:17:30;13.30;99.90
22682;DHT22;11508;50.856;4.380;2023-04-22T11:19:57;13.20;99.90
22682;DHT22;11508;50.856;4.380;2023-04-22T11:22:23;13.10;99.90
22682;DHT22;11508;50.856;4.380;2023-04-22T11:24:56;13.20;99.90
22682;DHT22;11508;50.856;4.380;2023-04-22T11:27:22;13.40;99.90
22682;DHT22;11508;50.856;4.380;2023-04-22T11:32:29;13.50;99.90
22682;DHT22;11508;50.856;4.380;2023-04-22T11:34:56;13.60;99.90
22682;DHT22;11508;50.856;4.380;2023-04-22T11:37:22;13.50;99.90
22682;DHT22;11508;50.856;4.380;2023-04-22T11:39:48;13.20;99.90
22682;DHT22;11508;50.856;4.380;2023-04-22T11:42:20;13.10;99.90
22682;DHT22;11508;50.856;4.380;2023-04-22T11:44:47;13.00;99.90
22682;DHT22;11508;50.856;4.380;2023-04-22T11:47:13;13.00;99.90
22682;DHT22;11508;50.856;4.380;2023-04-22T11:49:38;13.00;99.90
22682;DHT22;11508;50.856;4.380;2023-04-22T11:52:04;12.80;99.90
22682;DHT22;11508;50.856;4.380;2023-04-22T11:54:32;12.80;99.90
22682;DHT22;11508;50.856;4.380;2023-04-22T11:57:04;12.80;99.90
22682;DHT22;11508;50.856;4.380;2023-04-22T11:59:31;13.20;99.90
22682;DHT22;11508;50.856;4.380;2023-04-22T12:01:56;13.20;99.90
22682;DHT22;11508;50.856;4.380;2023-04-22T12:04:22;13.00;99.90
22682;DHT22;11508;50.856;4.380;2023-04-22T12:06:50;12.90;99.90
22682;DHT22;11508;50.856;4.380;2023-04-22T12:09:16;13.00;99.90
22682;DHT22;11508;50.856;4.380;2023-04-22T12:11:44;13.00;99.90
22682;DHT22;11508;50.856;4.380;2023-04-22T12:14:10;12.90;99.90
22682;DHT22;11508;50.856;4.380;2023-04-22T12:16:40;13.00;99.90
22682;DHT22;11508;50.856;4.380;2023-04-22T12:19:06;12.90;99.90
22682;DHT22;11508;50.856;4.380;2023-04-22T12:21:32;13.00;99.90
22682;DHT22;11508;50.856;4.380;2023-04-22T12:24:02;13.00;99.90
22682;DHT22;11508;50.856;4.380;2023-04-22T12:26:32;13.20;99.90
22682;DHT22;11508;50.856;4.380;2023-04-22T12:28:59;13.00;99.90
22682;DHT22;11508;50.856;4.380;2023-04-22T12:31:26;13.00;99.90
22682;DHT22;11508;50.856;4.380;2023-04-22T12:33:52;12.90;99.90
22682;DHT22;11508;50.856;4.380;2023-04-22T12:36:19;13.30;99.90
22682;DHT22;11508;50.856;4.380;2023-04-22T12:38:48;13.20;99.90
22682;DHT22;11508;50.856;4.380;2023-04-22T12:41:14;13.20;99.90
22682;DHT22;11508;50.856;4.380;2023-04-22T12:43:40;13.40;99.90
22682;DHT22;11508;50.856;4.380;2023-04-22T12:46:07;13.40;99.90
22682;DHT22;11508;50.856;4.380;2023-04-22T12:48:33;13.60;99.90
22682;DHT22;11508;50.856;4.380;2023-04-22T12:51:02;13.60;99.90
22682;DHT22;11508;50.856;4.380;2023-04-22T12:53:28;13.80;99.90
22682;DHT22;11508;50.856;4.380;2023-04-22T12:55:54;14.00;99.90
22682;DHT22;11508;50.856;4.380;2023-04-22T12:58:20;14.20;99.90
22682;DHT22;11508;50.856;4.380;2023-04-22T13:00:45;14.40;99.90
22682;DHT22;11508;50.856;4.380;2023-04-22T13:03:11;14.50;99.90
22682;DHT22;11508;50.856;4.380;2023-04-22T13:05:37;14.50;97.80
22682;DHT22;11508;50.856;4.380;2023-04-22T13:08:04;14.80;95.30
22682;DHT22;11508;50.856;4.380;2023-04-22T13:10:30;15.00;83.00
22682;DHT22;11508;50.856;4.380;2023-04-22T13:12:56;14.90;61.70
22682;DHT22;11508;50.856;4.380;2023-04-22T13:15:22;14.70;65.90
22682;DHT22;11508;50.856;4.380;2023-04-22T13:17:51;14.30;79.80
22682;DHT22;11508;50.856;4.380;2023-04-22T13:20:17;14.40;93.80
22682;DHT22;11508;50.856;4.380;2023-04-22T13:22:42;14.10;92.60
22682;DHT22;11508;50.856;4.380;2023-04-22T13:25:08;14.00;99.20
22682;DHT22;11508;50.856;4.380;2023-04-22T13:27:35;14.20;99.90
22682;DHT22;11508;50.856;4.380;2023-04-22T13:30:01;14.40;99.90
22682;DHT22;11508;50.856;4.380;2023-04-22T13:32:28;14.00;87.20
22682;DHT22;11508;50.856;4.380;2023-04-22T13:34:54;13.90;98.90
22682;DHT22;11508;50.856;4.380;2023-04-22T13:37:19;14.00;99.90
22682;DHT22;11508;50.856;4.380;2023-04-22T13:39:46;14.10;99.90
22682;DHT22;11508;50.856;4.380;2023-04-22T13:42:12;13.80;99.90
22682;DHT22;11508;50.856;4.380;2023-04-22T13:44:38;13.50;99.90
22682;DHT22;11508;50.856;4.380;2023-04-22T13:47:05;13.40;99.90
22682;DHT22;11508;50.856;4.380;2023-04-22T13:49:30;13.50;99.90
22682;DHT22;11508;50.856;4.380;2023-04-22T13:51:56;13.60;99.90
22682;DHT22;11508;50.856;4.380;2023-04-22T13:54:22;13.30;99.90
22682;DHT22;11508;50.856;4.380;2023-04-22T13:56:48;13.30;99.90
22682;DHT22;11508;50.856;4.380;2023-04-22T13:59:15;13.10;99.90
22682;DHT22;11508;50.856;4.380;2023-04-22T14:01:40;13.20;99.90
22682;DHT22;11508;50.856;4.380;2023-04-22T14:04:06;13.20;99.90
22682;DHT22;11508;50.856;4.380;2023-04-22T14:06:32;13.20;99.90
22682;DHT22;11508;50.856;4.380;2023-04-22T14:08:58;13.10;99.90
22682;DHT22;11508;50.856;4.380;2023-04-22T14:11:24;13.00;99.90
22682;DHT22;11508;50.856;4.380;2023-04-22T14:13:50;13.10;99.90
22682;DHT22;11508;50.856;4.380;2023-04-22T14:16:16;12.80;99.90
22682;DHT22;11508;50.856;4.380;2023-04-22T14:18:43;12.80;99.90
22682;DHT22;11508;50.856;4.380;2023-04-22T14:21:10;12.80;99.90
22682;DHT22;11508;50.856;4.380;2023-04-22T14:23:38;12.70;99.90
22682;DHT22;11508;50.856;4.380;2023-04-22T14:26:05;12.70;99.90
22682;DHT22;11508;50.856;4.380;2023-04-22T14:28:31;12.60;99.90
22682;DHT22;11508;50.856;4.380;2023-04-22T14:30:58;12.50;99.90
22682;DHT22;11508;50.856;4.380;2023-04-22T14:33:24;12.50;99.90
22682;DHT22;11508;50.856;4.380;2023-04-22T14:35:52;12.60;99.90
22682;DHT22;11508;50.856;4.380;2023-04-22T14:38:19;12.40;99.90
22682;DHT22;11508;50.856;4.380;2023-04-22T14:40:46;12.20;99.90
22682;DHT22;11508;50.856;4.380;2023-04-22T14:43:12;12.10;99.90
22682;DHT22;11508;50.856;4.380;2023-04-22T14:45:38;12.00;99.90
22682;DHT22;11508;50.856;4.380;2023-04-22T14:48:04;12.10;99.90
22682;DHT22;11508;50.856;4.380;2023-04-22T14:50:31;12.10;99.90
22682;DHT22;11508;50.856;4.380;2023-04-22T14:52:57;12.10;99.90
22682;DHT22;11508;50.856;4.380;2023-04-22T14:55:23;12.20;99.90
22682;DHT22;11508;50.856;4.380;2023-04-22T14:57:51;12.10;99.90
22682;DHT22;11508;50.856;4.380;2023-04-22T15:00:17;12.00;99.90
22682;DHT22;11508;50.856;4.380;2023-04-22T15:02:43;11.90;99.90
22682;DHT22;11508;50.856;4.380;2023-04-22T15:05:09;12.10;99.90
22682;DHT22;11508;50.856;4.380;2023-04-22T15:07:35;12.30;99.90
22682;DHT22;11508;50.856;4.380;2023-04-22T15:10:00;12.60;99.90
22682;DHT22;11508;50.856;4.380;2023-04-22T15:12:27;12.80;99.90
22682;DHT22;11508;50.856;4.380;2023-04-22T15:14:53;12.50;99.90
22682;DHT22;11508;50.856;4.380;2023-04-22T15:17:20;12.60;99.90
22682;DHT22;11508;50.856;4.380;2023-04-22T15:19:47;12.60;99.90
22682;DHT22;11508;50.856;4.380;2023-04-22T15:22:14;12.60;99.90
22682;DHT22;11508;50.856;4.380;2023-04-22T15:24:40;12.50;99.90
22682;DHT22;11508;50.856;4.380;2023-04-22T15:27:06;12.60;99.90
22682;DHT22;11508;50.856;4.380;2023-04-22T15:29:31;12.90;99.90
22682;DHT22;11508;50.856;4.380;2023-04-22T15:31:57;12.60;96.20
22682;DHT22;11508;50.856;4.380;2023-04-22T15:34:23;12.50;99.90
22682;DHT22;11508;50.856;4.380;2023-04-22T15:36:49;12.40;99.90
22682;DHT22;11508;50.856;4.380;2023-04-22T15:39:15;12.40;99.90
22682;DHT22;11508;50.856;4.380;2023-04-22T15:41:40;12.20;99.90
22682;DHT22;11508;50.856;4.380;2023-04-22T15:44:07;12.20;99.90
22682;DHT22;11508;50.856;4.380;2023-04-22T15:46:35;12.30;99.90